Time;durP1;ratioP1;P1;durP2;ratioP2;P2;SDS_P1;SDS_P2;PMS_P1;PMS_P2;Temp;Humidity;BMP_temperature;BMP_pressure;BME280_temperature;BME280_humidity;BME280_pressure;Samples;Min_cycle;Max_cycle;Signal;HPM_P1;HPM_P2
2024/01/13 00:01:20;;;;;;;16.80;13.05;;;4.90;99.90;;;;;;4981458;28;20046;-86
2024/01/13 00:03:46;;;;;;;18.52;13.65;;;4.90;99.90;;;;;;4981337;28;20483;-87
2024/01/13 00:06:13;;;;;;;23.75;13.98;;;4.80;99.90;;;;;;4981677;28;20427;-86
2024/01/13 00:08:40;;;;;;;18.25;13.25;;;4.80;99.90;;;;;;4978439;28;20446;-86
2024/01/13 00:11:06;;;;;;;17.30;13.88;;;4.70;99.90;;;;;;4997226;28;20037;-87
2024/01/13 00:13:33;;;;;;;15.23;12.80;;;4.70;99.90;;;;;;4981559;28;20057;-87
2024/01/13 00:15:59;;;;;;;16.13;12.88;;;4.60;99.90;;;;;;4981549;28;20038;-86
2024/01/13 00:18:26;;;;;;;16.48;12.15;;;4.60;99.90;;;;;;4981171;28;20034;-86
2024/01/13 00:20:53;;;;;;;16.10;12.63;;;4.50;99.90;;;;;;4981179;28;20046;-87
2024/01/13 00:23:20;;;;;;;16.98;12.27;;;4.40;99.90;;;;;;4981495;28;20429;-86
2024/01/13 00:25:46;;;;;;;15.13;11.75;;;4.40;99.90;;;;;;4981409;28;20040;-87
2024/01/13 00:28:13;;;;;;;16.58;12.60;;;4.40;99.90;;;;;;4980609;28;20108;-86
2024/01/13 00:30:39;;;;;;;16.05;12.07;;;4.30;99.90;;;;;;4961979;28;20034;-87
2024/01/13 00:33:06;;;;;;;22.58;12.50;;;4.30;99.90;;;;;;4962018;28;20034;-87
2024/01/13 00:35:32;;;;;;;18.15;12.32;;;4.30;99.90;;;;;;4961829;28;20034;-87
2024/01/13 00:37:59;;;;;;;16.92;12.43;;;4.30;99.90;;;;;;4961889;28;20030;-87
2024/01/13 00:40:25;;;;;;;15.32;12.20;;;4.30;99.90;;;;;;4962112;28;20026;-87
2024/01/13 00:42:52;;;;;;;22.08;12.63;;;4.30;99.90;;;;;;4961688;28;20034;-86
2024/01/13 00:45:18;;;;;;;20.17;13.07;;;4.30;99.90;;;;;;4982882;28;20037;-85
2024/01/13 00:47:44;;;;;;;18.77;12.60;;;4.30;99.90;;;;;;4972715;28;20036;-86
2024/01/13 00:50:11;;;;;;;22.30;12.85;;;4.30;99.90;;;;;;4966450;28;20040;-86
2024/01/13 00:52:37;;;;;;;24.13;12.75;;;4.30;99.90;;;;;;4981260;28;20033;-86
2024/01/13 00:55:04;;;;;;;18.85;12.52;;;4.30;99.90;;;;;;4981165;28;20034;-87
2024/01/13 00:57:31;;;;;;;17.17;12.13;;;4.40;99.90;;;;;;4980911;28;20030;-86
2024/01/13 00:59:57;;;;;;;19.30;12.90;;;4.40;99.90;;;;;;4980438;28;20026;-87
2024/01/13 01:02:24;;;;;;;19.70;12.93;;;4.30;99.90;;;;;;4980429;28;20050;-86
2024/01/13 01:04:50;;;;;;;23.95;13.43;;;4.40;99.90;;;;;;4980457;28;20056;-86
2024/01/13 01:07:17;;;;;;;15.23;11.95;;;4.30;99.90;;;;;;4996795;28;20030;-86
2024/01/13 01:09:43;;;;;;;16.80;11.68;;;4.40;99.90;;;;;;4980681;28;20026;-86
2024/01/13 01:12:13;;;;;;;17.63;11.75;;;4.40;99.90;;;;;;4980710;28;20517;-87
2024/01/13 01:14:39;;;;;;;17.50;12.05;;;4.40;99.90;;;;;;4979567;28;20053;-87
2024/01/13 01:17:05;;;;;;;20.10;11.90;;;4.40;99.90;;;;;;4996998;28;20025;-87
2024/01/13 01:19:32;;;;;;;17.92;12.23;;;4.40;99.90;;;;;;4980876;28;20029;-86
2024/01/13 01:21:58;;;;;;;21.63;12.85;;;4.40;99.90;;;;;;4996921;28;20033;-86
2024/01/13 01:24:28;;;;;;;14.32;11.98;;;4.40;99.90;;;;;;4980503;28;20084;-87
2024/01/13 01:26:54;;;;;;;18.27;11.75;;;4.40;99.90;;;;;;4996741;28;20052;-86
2024/01/13 01:29:20;;;;;;;14.80;11.40;;;4.40;99.90;;;;;;4980311;28;20038;-87
2024/01/13 01:31:47;;;;;;;17.40;11.75;;;4.40;99.90;;;;;;4980389;28;20034;-88
2024/01/13 01:34:13;;;;;;;19.38;12.10;;;4.40;99.90;;;;;;4980403;28;20025;-86
2024/01/13 01:36:43;;;;;;;21.63;11.70;;;4.40;99.90;;;;;;4980214;28;20026;-87
2024/01/13 01:39:10;;;;;;;19.40;12.18;;;4.40;99.90;;;;;;4980558;28;20034;-87
2024/01/13 01:41:36;;;;;;;18.83;11.85;;;4.30;99.90;;;;;;4976999;28;20030;-86
2024/01/13 01:44:03;;;;;;;16.80;12.07;;;4.30;99.90;;;;;;4993217;28;20022;-87
2024/01/13 01:46:31;;;;;;;15.82;11.55;;;4.30;99.90;;;;;;4961001;28;20030;-86
2024/01/13 01:48:59;;;;;;;16.40;11.50;;;4.20;99.90;;;;;;4961127;28;20034;-87
2024/01/13 01:51:28;;;;;;;16.77;11.55;;;4.20;99.90;;;;;;4961152;28;20117;-86
2024/01/13 01:53:55;;;;;;;19.92;12.45;;;4.20;99.90;;;;;;4996462;28;20026;-87
2024/01/13 01:56:24;;;;;;;22.88;13.90;;;4.10;99.90;;;;;;4980256;28;20034;-87
2024/01/13 01:58:54;;;;;;;30.73;15.27;;;4.10;99.90;;;;;;4977012;28;20026;-86
2024/01/13 02:01:27;;;;;;;27.17;15.07;;;4.00;99.90;;;;;;4996075;28;20038;-86
2024/01/13 02:03:54;;;;;;;24.15;13.35;;;4.00;99.90;;;;;;4976851;28;20027;-87
2024/01/13 02:06:20;;;;;;;20.52;12.95;;;4.00;99.90;;;;;;4984893;28;20034;-87
2024/01/13 02:08:47;;;;;;;18.88;11.57;;;4.00;99.90;;;;;;4976881;28;20034;-86
2024/01/13 02:11:13;;;;;;;22.50;12.18;;;4.00;99.90;;;;;;4960894;28;20108;-86
2024/01/13 02:13:41;;;;;;;17.58;11.07;;;4.10;99.90;;;;;;4961225;28;20041;-86
2024/01/13 02:16:09;;;;;;;16.48;11.50;;;4.10;99.90;;;;;;4960795;28;20373;-86
2024/01/13 02:18:36;;;;;;;14.85;11.18;;;4.10;99.90;;;;;;4978290;28;20038;-87
2024/01/13 02:21:02;;;;;;;19.20;10.85;;;4.00;99.90;;;;;;4980046;28;20029;-87
2024/01/13 02:23:29;;;;;;;19.15;9.80;;;4.00;99.90;;;;;;4992377;28;20094;-86
2024/01/13 02:25:56;;;;;;;21.27;11.68;;;3.90;99.90;;;;;;4981303;28;20092;-86
2024/01/13 02:28:23;;;;;;;13.98;10.55;;;3.90;99.90;;;;;;4982323;28;20037;-87
2024/01/13 02:30:49;;;;;;;19.05;10.18;;;3.90;99.90;;;;;;4974917;28;20061;-87
2024/01/13 02:33:16;;;;;;;17.02;10.60;;;3.90;99.90;;;;;;4983713;28;20514;-87
2024/01/13 02:35:42;;;;;;;17.67;11.05;;;3.80;99.90;;;;;;4983275;28;20042;-87
2024/01/13 02:38:09;;;;;;;18.27;10.20;;;3.80;99.90;;;;;;4983436;28;20034;-86
2024/01/13 02:40:36;;;;;;;23.52;11.88;;;3.80;99.90;;;;;;4983353;28;20076;-87
2024/01/13 02:43:02;;;;;;;39.78;14.88;;;3.80;99.90;;;;;;4983369;28;20021;-87
2024/01/13 02:45:29;;;;;;;40.72;15.70;;;3.80;99.90;;;;;;4983512;28;20038;-87
2024/01/13 02:48:16;;;;;;;41.92;17.08;;;3.70;99.90;;;;;;4983228;28;20414;-86
2024/01/13 02:50:57;;;;;;;44.20;17.00;;;3.80;99.90;;;;;;4983164;28;20466;-87
2024/01/13 02:53:24;;;;;;;42.35;16.58;;;3.80;99.90;;;;;;4983279;28;20056;-87
2024/01/13 02:55:50;;;;;;;37.95;16.13;;;3.80;99.90;;;;;;4982986;28;20034;-86
2024/01/13 02:58:17;;;;;;;36.90;15.98;;;3.90;99.90;;;;;;4982977;28;20112;-88
2024/01/13 03:00:43;;;;;;;37.63;15.48;;;3.90;99.90;;;;;;4982757;28;20037;-87
2024/01/13 03:03:10;;;;;;;28.83;14.25;;;3.80;99.90;;;;;;4982588;28;20050;-87
2024/01/13 03:05:37;;;;;;;28.15;13.20;;;3.80;99.90;;;;;;4982830;28;20061;-87
2024/01/13 03:08:03;;;;;;;25.77;12.75;;;3.80;99.90;;;;;;4982963;28;20053;-88
2024/01/13 03:10:31;;;;;;;19.92;11.30;;;3.80;99.90;;;;;;4982171;28;20037;-86
2024/01/13 03:12:57;;;;;;;20.67;11.77;;;3.80;99.90;;;;;;4979234;28;20118;-87
2024/01/13 03:15:24;;;;;;;20.73;11.45;;;3.80;99.90;;;;;;4963267;28;20037;-86
2024/01/13 03:17:54;;;;;;;19.80;10.27;;;3.80;99.90;;;;;;4963250;28;20488;-87
2024/01/13 03:20:20;;;;;;;21.67;11.57;;;3.70;99.90;;;;;;4963576;28;20117;-87
2024/01/13 03:22:47;;;;;;;14.80;10.07;;;3.70;99.90;;;;;;4973016;28;20052;-87
2024/01/13 03:25:13;;;;;;;19.70;11.27;;;3.70;99.90;;;;;;4981465;28;20037;-87
2024/01/13 03:27:39;;;;;;;16.58;10.10;;;3.70;99.90;;;;;;4982708;28;20129;-87
2024/01/13 03:30:09;;;;;;;17.60;10.45;;;3.60;99.90;;;;;;4981287;28;20546;-87
2024/01/13 03:32:36;;;;;;;21.77;10.48;;;3.60;99.90;;;;;;4981579;28;20149;-87
2024/01/13 03:35:02;;;;;;;24.08;11.00;;;3.60;99.90;;;;;;4982226;28;20038;-86
2024/01/13 03:37:29;;;;;;;16.15;9.57;;;3.70;99.90;;;;;;4981067;28;20116;-86
2024/01/13 03:39:55;;;;;;;16.05;9.73;;;3.80;99.90;;;;;;4982366;28;20490;-87
2024/01/13 03:42:21;;;;;;;15.35;9.43;;;3.80;99.90;;;;;;4978809;28;20031;-86
2024/01/13 03:44:48;;;;;;;18.83;10.13;;;3.90;99.90;;;;;;4977129;28;20077;-87
2024/01/13 03:47:14;;;;;;;21.45;10.65;;;3.90;99.90;;;;;;4978760;28;20038;-86
2024/01/13 03:49:41;;;;;;;18.85;10.35;;;3.90;99.90;;;;;;4978440;28;20022;-87
2024/01/13 03:52:07;;;;;;;24.52;9.98;;;4.00;99.90;;;;;;4983484;28;20062;-86
2024/01/13 03:54:33;;;;;;;17.33;9.80;;;4.00;99.90;;;;;;4962576;28;20065;-87
2024/01/13 03:56:59;;;;;;;17.27;9.50;;;4.00;99.90;;;;;;4978572;28;20038;-87
2024/01/13 03:59:26;;;;;;;19.50;9.88;;;4.00;99.90;;;;;;4966412;28;20022;-86
2024/01/13 04:01:54;;;;;;;12.93;9.20;;;4.10;99.90;;;;;;4985723;28;20157;-86
2024/01/13 04:04:20;;;;;;;17.75;9.98;;;4.10;99.90;;;;;;4980677;28;20118;-86
2024/01/13 04:06:47;;;;;;;17.00;10.00;;;4.10;99.90;;;;;;4997214;28;20037;-85
2024/01/13 04:09:14;;;;;;;14.93;10.50;;;4.10;99.90;;;;;;4979647;28;20391;-85
2024/01/13 04:11:40;;;;;;;15.88;10.63;;;4.10;99.90;;;;;;4978113;28;20038;-84
2024/01/13 04:14:06;;;;;;;13.02;10.23;;;4.10;99.90;;;;;;4994193;28;20018;-84
2024/01/13 04:16:33;;;;;;;16.38;10.40;;;4.10;99.90;;;;;;4994027;28;20034;-88
2024/01/13 04:18:59;;;;;;;19.00;10.40;;;4.10;99.90;;;;;;4978564;28;20377;-87
2024/01/13 04:21:26;;;;;;;15.75;10.27;;;4.10;99.90;;;;;;4980617;28;20037;-87
2024/01/13 04:23:53;;;;;;;14.23;10.50;;;4.10;99.90;;;;;;4980527;28;20034;-86
2024/01/13 04:26:22;;;;;;;16.45;10.95;;;4.10;99.90;;;;;;4995333;28;20030;-87
2024/01/13 04:28:55;;;;;;;20.50;11.35;;;4.10;99.90;;;;;;4994201;28;20041;-87
2024/01/13 04:31:21;;;;;;;24.13;11.48;;;4.00;99.90;;;;;;4987615;28;20384;-87
2024/01/13 04:33:47;;;;;;;15.18;10.43;;;4.00;99.90;;;;;;4959226;28;20492;-88
2024/01/13 04:36:14;;;;;;;19.95;10.95;;;4.00;99.90;;;;;;4959017;28;20035;-87
2024/01/13 04:38:40;;;;;;;17.13;10.68;;;4.00;99.90;;;;;;4959387;28;20034;-89
2024/01/13 04:41:07;;;;;;;15.82;10.13;;;4.00;99.90;;;;;;4967461;28;20037;-88
2024/01/13 04:43:33;;;;;;;15.95;10.55;;;4.10;99.90;;;;;;4978766;28;20027;-89
2024/01/13 04:46:00;;;;;;;17.85;10.57;;;4.10;99.90;;;;;;4960000;28;20043;-85
2024/01/13 04:48:26;;;;;;;20.13;11.10;;;4.10;99.90;;;;;;4960321;28;20023;-85
2024/01/13 04:50:53;;;;;;;16.65;10.57;;;4.10;99.90;;;;;;4959823;28;20022;-88
2024/01/13 04:53:19;;;;;;;16.35;10.90;;;4.20;99.90;;;;;;4965411;28;20058;-86
2024/01/13 04:55:46;;;;;;;18.25;11.77;;;4.20;99.90;;;;;;4993882;28;20558;-86
2024/01/13 04:58:12;;;;;;;14.98;11.05;;;4.10;99.90;;;;;;4977469;28;20030;-85
2024/01/13 05:00:42;;;;;;;19.02;10.88;;;4.10;99.90;;;;;;4992945;28;20054;-86
2024/01/13 05:03:08;;;;;;;11.98;10.55;;;4.10;99.90;;;;;;4958224;28;20046;-85
2024/01/13 05:05:35;;;;;;;12.60;10.65;;;4.10;99.90;;;;;;4958081;28;20038;-86
2024/01/13 05:08:01;;;;;;;21.48;11.40;;;4.00;99.90;;;;;;4974324;28;20026;-83
2024/01/13 05:10:28;;;;;;;21.30;10.95;;;4.00;99.90;;;;;;4974748;28;20034;-87
2024/01/13 05:12:54;;;;;;;16.13;10.63;;;4.00;99.90;;;;;;4991839;28;20023;-86
2024/01/13 05:15:21;;;;;;;15.65;10.63;;;3.90;99.90;;;;;;4977736;28;20435;-86
2024/01/13 05:17:49;;;;;;;16.13;10.52;;;3.90;99.90;;;;;;4975526;28;20031;-87
2024/01/13 05:20:15;;;;;;;17.92;10.32;;;3.90;99.90;;;;;;4958299;28;20039;-87
2024/01/13 05:22:45;;;;;;;22.80;11.18;;;3.90;99.90;;;;;;4973943;28;20022;-87
2024/01/13 05:25:11;;;;;;;16.65;11.15;;;3.90;99.90;;;;;;4993568;28;20026;-89
2024/01/13 05:27:38;;;;;;;18.08;10.55;;;3.90;99.90;;;;;;4994555;28;20018;-86
2024/01/13 05:30:09;;;;;;;15.30;10.25;;;3.90;99.90;;;;;;4978304;28;20034;-88
2024/01/13 05:32:39;;;;;;;17.63;10.85;;;3.80;99.90;;;;;;4978438;28;20037;-88
2024/01/13 05:35:07;;;;;;;18.50;11.32;;;3.80;99.90;;;;;;4978362;28;20045;-85
2024/01/13 05:37:34;;;;;;;19.52;10.80;;;3.80;99.90;;;;;;5010099;28;20027;-83
2024/01/13 05:40:01;;;;;;;16.58;11.20;;;3.80;99.90;;;;;;4971055;28;20563;-86
2024/01/13 05:42:27;;;;;;;20.27;10.98;;;3.90;99.90;;;;;;4957991;28;20026;-88
2024/01/13 05:44:54;;;;;;;16.23;11.65;;;3.80;99.90;;;;;;4974070;28;20031;-86
2024/01/13 05:47:20;;;;;;;18.55;11.05;;;3.80;99.90;;;;;;4957885;28;20029;-87
2024/01/13 05:49:46;;;;;;;21.58;11.40;;;3.80;99.90;;;;;;4959188;28;20502;-87
2024/01/13 05:52:13;;;;;;;15.52;10.77;;;3.80;99.90;;;;;;4973888;28;20030;-87
2024/01/13 05:54:39;;;;;;;14.40;10.90;;;3.80;99.90;;;;;;4973894;28;20039;-87
2024/01/13 05:57:09;;;;;;;18.40;11.05;;;3.80;99.90;;;;;;4973763;28;20035;-86
2024/01/13 05:59:35;;;;;;;19.15;11.50;;;3.80;99.90;;;;;;4973964;28;20082;-87
2024/01/13 06:02:02;;;;;;;18.10;10.43;;;3.80;99.90;;;;;;4963175;28;20058;-88
2024/01/13 06:04:28;;;;;;;23.20;10.73;;;3.80;99.90;;;;;;4980863;28;20027;-87
2024/01/13 06:06:55;;;;;;;19.05;10.80;;;3.80;99.90;;;;;;4971128;28;20034;-87
2024/01/13 06:09:21;;;;;;;18.50;10.63;;;3.80;99.90;;;;;;4983862;28;20037;-87
2024/01/13 06:11:48;;;;;;;17.08;11.07;;;3.80;99.90;;;;;;4983643;28;20116;-87
2024/01/13 06:14:14;;;;;;;19.08;11.18;;;3.80;99.90;;;;;;4983807;28;20022;-87
2024/01/13 06:16:41;;;;;;;16.95;10.38;;;3.80;99.90;;;;;;4980485;28;20436;-87
2024/01/13 06:19:08;;;;;;;14.27;11.00;;;3.80;99.90;;;;;;4964533;28;20077;-88
2024/01/13 06:21:42;;;;;;;16.05;10.88;;;3.80;99.90;;;;;;4980731;28;20030;-87
2024/01/13 06:24:11;;;;;;;18.05;10.25;;;3.80;99.90;;;;;;4964310;28;20084;-88
2024/01/13 06:26:42;;;;;;;16.83;10.73;;;3.80;99.90;;;;;;4983090;28;20026;-87
2024/01/13 06:29:09;;;;;;;19.40;10.57;;;3.80;99.90;;;;;;4983645;28;20030;-87
2024/01/13 06:31:36;;;;;;;21.00;11.32;;;3.80;99.90;;;;;;4983581;28;20014;-86
2024/01/13 06:34:02;;;;;;;15.93;11.63;;;3.90;99.90;;;;;;4983410;28;20034;-87
2024/01/13 06:36:29;;;;;;;20.52;11.32;;;3.80;99.90;;;;;;4982326;28;20115;-87
2024/01/13 06:38:56;;;;;;;20.85;11.50;;;3.90;99.90;;;;;;4963799;28;20037;-86
2024/01/13 06:41:25;;;;;;;17.77;11.63;;;3.90;99.90;;;;;;4964130;28;20026;-86
2024/01/13 06:43:55;;;;;;;20.02;11.60;;;3.90;99.90;;;;;;4980185;28;20026;-86
2024/01/13 06:46:22;;;;;;;23.95;12.43;;;3.90;99.90;;;;;;4964032;28;20037;-87
2024/01/13 06:48:49;;;;;;;21.55;11.48;;;4.00;99.90;;;;;;4963920;28;20030;-87
2024/01/13 06:51:15;;;;;;;19.35;13.13;;;4.10;99.90;;;;;;4963761;28;20121;-86
2024/01/13 06:53:42;;;;;;;18.48;14.18;;;4.30;99.90;;;;;;4980123;28;20026;-86
2024/01/13 06:56:11;;;;;;;19.38;14.40;;;4.40;99.90;;;;;;4963486;28;20069;-87
2024/01/13 06:58:37;;;;;;;20.83;15.52;;;4.60;99.90;;;;;;4981620;28;20025;-87
2024/01/13 07:01:05;;;;;;;19.50;17.15;;;4.80;99.90;;;;;;4983248;28;20029;-89
2024/01/13 07:03:32;;;;;;;20.55;16.95;;;5.00;99.90;;;;;;4979534;28;20496;-89
2024/01/13 07:06:00;;;;;;;22.05;19.23;;;5.10;99.90;;;;;;4980140;28;20038;-87
2024/01/13 07:08:27;;;;;;;23.98;20.35;;;5.30;99.90;;;;;;4979669;28;20034;-87
2024/01/13 07:10:54;;;;;;;25.85;20.52;;;5.50;99.90;;;;;;4996122;28;20487;-86
2024/01/13 07:13:21;;;;;;;23.58;21.13;;;5.60;99.90;;;;;;4989639;28;20026;-88
2024/01/13 07:15:47;;;;;;;23.05;20.92;;;5.80;99.90;;;;;;4992945;28;20125;-88
2024/01/13 07:18:14;;;;;;;30.85;21.83;;;5.90;99.90;;;;;;4983197;28;20077;-87
2024/01/13 07:20:41;;;;;;;23.92;21.63;;;6.20;99.90;;;;;;4999107;28;20026;-88
2024/01/13 07:23:07;;;;;;;25.45;22.33;;;6.40;99.90;;;;;;4982878;28;20506;-85
2024/01/13 07:25:34;;;;;;;26.33;23.58;;;6.60;99.90;;;;;;4982495;28;20034;-86
2024/01/13 07:28:01;;;;;;;25.83;23.27;;;6.70;99.90;;;;;;4982421;28;20061;-86
2024/01/13 07:30:27;;;;;;;27.55;24.92;;;6.70;99.90;;;;;;4982224;28;20033;-85
2024/01/13 07:32:53;;;;;;;28.02;25.35;;;6.80;99.90;;;;;;4982111;28;20026;-86
2024/01/13 07:35:20;;;;;;;28.77;25.60;;;6.60;99.90;;;;;;4982042;28;20034;-86
2024/01/13 07:37:46;;;;;;;28.98;26.38;;;6.70;99.90;;;;;;4981931;28;20483;-85
2024/01/13 07:40:13;;;;;;;28.55;26.00;;;6.80;99.90;;;;;;4982132;28;20021;-85
2024/01/13 07:42:40;;;;;;;29.85;26.65;;;7.00;99.90;;;;;;4981827;28;20034;-87
2024/01/13 07:45:06;;;;;;;30.75;27.42;;;7.30;99.90;;;;;;4979050;28;20049;-89
2024/01/13 07:47:34;;;;;;;28.88;25.70;;;7.50;99.90;;;;;;4965257;28;20487;-90
2024/01/13 07:50:04;;;;;;;29.27;25.30;;;7.60;99.90;;;;;;4979342;28;20027;-90
2024/01/13 07:52:31;;;;;;;29.70;24.90;;;7.80;99.90;;;;;;4998282;28;20034;-90
2024/01/13 07:54:58;;;;;;;25.52;23.30;;;7.90;99.90;;;;;;4982116;28;20034;-89
2024/01/13 07:57:29;;;;;;;26.63;24.00;;;7.90;99.90;;;;;;4983427;28;20368;-90
2024/01/13 07:59:56;;;;;;;32.42;23.60;;;7.90;99.90;;;;;;4981987;28;20034;-88
2024/01/13 08:02:22;;;;;;;27.58;24.55;;;7.80;99.90;;;;;;4979220;28;20050;-88
2024/01/13 08:04:49;;;;;;;34.20;25.48;;;7.80;99.90;;;;;;4962597;28;20037;-88
2024/01/13 08:07:16;;;;;;;32.90;25.35;;;7.70;99.90;;;;;;4963010;28;20074;-88
2024/01/13 08:09:43;;;;;;;31.00;25.25;;;7.60;99.90;;;;;;4962969;28;20109;-89
2024/01/13 08:12:11;;;;;;;35.83;25.92;;;7.60;99.90;;;;;;4963856;28;20034;-90
2024/01/13 08:14:37;;;;;;;31.80;25.83;;;7.80;99.90;;;;;;4963322;28;20403;-89
2024/01/13 08:17:07;;;;;;;33.80;25.83;;;8.00;99.90;;;;;;4962337;28;20029;-87
2024/01/13 08:19:40;;;;;;;27.60;24.50;;;8.10;99.90;;;;;;4962298;28;20094;-89
2024/01/13 08:22:10;;;;;;;30.75;24.27;;;8.20;99.90;;;;;;4962834;28;20480;-89
2024/01/13 08:24:37;;;;;;;29.70;24.77;;;8.40;99.90;;;;;;4967362;28;20033;-88
2024/01/13 08:27:07;;;;;;;28.27;25.45;;;8.50;99.90;;;;;;4981729;28;20093;-90
2024/01/13 08:29:34;;;;;;;29.80;25.73;;;8.60;99.90;;;;;;4981395;28;20368;-90
2024/01/13 08:32:00;;;;;;;29.25;25.67;;;8.70;99.90;;;;;;4981393;28;20045;-91
2024/01/13 08:34:26;;;;;;;30.67;26.88;;;8.80;99.90;;;;;;4977764;28;20026;-91
2024/01/13 08:36:53;;;;;;;32.13;25.83;;;8.80;99.90;;;;;;4977796;28;20501;-90
2024/01/13 08:39:19;;;;;;;29.58;26.35;;;9.00;99.90;;;;;;4977940;28;20034;-90
2024/01/13 08:41:45;;;;;;;29.30;26.13;;;9.20;99.90;;;;;;4978026;28;20022;-91
2024/01/13 08:44:11;;;;;;;29.88;26.65;;;9.10;99.90;;;;;;4965224;28;20061;-88
2024/01/13 08:46:38;;;;;;;32.85;26.10;;;9.10;99.90;;;;;;4981215;28;20116;-91
2024/01/13 08:49:05;;;;;;;28.17;25.48;;;9.10;99.90;;;;;;4980838;28;20052;-90
2024/01/13 08:51:31;;;;;;;29.10;26.17;;;9.10;99.90;;;;;;4982517;28;20155;-87
2024/01/13 08:53:58;;;;;;;29.63;25.88;;;9.20;99.90;;;;;;4984144;28;20041;-87
2024/01/13 08:56:26;;;;;;;30.48;27.10;;;9.20;99.90;;;;;;4980576;28;20041;-88
2024/01/13 08:58:53;;;;;;;29.42;26.38;;;9.20;99.90;;;;;;4984664;28;20022;-91
2024/01/13 09:01:20;;;;;;;29.25;26.35;;;9.10;99.90;;;;;;4987685;28;20491;-91
2024/01/13 09:03:47;;;;;;;30.30;27.08;;;9.20;99.90;;;;;;4989707;28;20036;-91
2024/01/13 09:06:14;;;;;;;31.38;26.92;;;9.20;99.90;;;;;;4985707;28;20553;-92
2024/01/13 09:08:41;;;;;;;29.45;26.42;;;9.30;99.90;;;;;;4986614;28;20029;-92
2024/01/13 09:11:09;;;;;;;29.65;26.83;;;9.40;99.90;;;;;;4987700;28;20117;-92
2024/01/13 09:13:36;;;;;;;30.88;27.58;;;9.60;99.90;;;;;;4987846;28;20076;-92
2024/01/13 09:16:06;;;;;;;33.45;26.95;;;9.80;99.90;;;;;;4988202;28;20034;-92
2024/01/13 09:18:33;;;;;;;30.40;27.60;;;9.80;99.90;;;;;;4985920;28;20030;-91
2024/01/13 09:21:00;;;;;;;30.83;27.60;;;9.90;99.90;;;;;;4986636;28;20088;-91
2024/01/13 09:23:27;;;;;;;31.45;28.33;;;10.00;99.90;;;;;;4985285;28;20458;-92
2024/01/13 09:25:53;;;;;;;30.98;28.08;;;10.10;99.90;;;;;;4982848;28;20479;-92
2024/01/13 09:28:20;;;;;;;30.65;27.77;;;10.20;99.90;;;;;;4983678;28;20033;-92
2024/01/13 09:30:49;;;;;;;30.83;28.30;;;10.20;99.90;;;;;;4980403;28;20018;-92
2024/01/13 09:33:16;;;;;;;32.35;29.70;;;9.70;99.90;;;;;;4981100;28;20034;-92
2024/01/13 09:35:47;;;;;;;32.25;29.63;;;9.50;99.90;;;;;;4995167;28;20034;-92
2024/01/13 09:38:15;;;;;;;34.65;31.90;;;9.60;99.90;;;;;;4982825;28;20056;-92
2024/01/13 09:40:43;;;;;;;34.10;31.60;;;9.60;99.90;;;;;;5001901;28;20049;-91
2024/01/13 09:43:35;;;;;;;34.85;32.08;;;9.70;99.90;;;;;;4985687;28;20121;-92
2024/01/13 09:46:02;;;;;;;35.65;32.83;;;9.90;99.90;;;;;;4986077;28;20062;-92
2024/01/13 09:48:31;;;;;;;36.05;33.55;;;10.10;99.90;;;;;;4987431;28;20046;-91
2024/01/13 09:50:59;;;;;;;36.55;33.88;;;10.10;99.90;;;;;;4988925;28;20499;-90
2024/01/13 09:53:30;;;;;;;36.28;33.55;;;10.00;99.90;;;;;;5010476;28;20022;-91
2024/01/13 09:56:22;;;;;;;36.75;33.72;;;10.10;99.90;;;;;;4990011;28;20041;-91
2024/01/13 09:58:49;;;;;;;35.75;32.78;;;10.30;99.90;;;;;;4988336;28;20030;-92
2024/01/13 10:01:16;;;;;;;35.75;32.95;;;10.20;99.90;;;;;;4985470;28;20030;-91
2024/01/13 10:03:51;;;;;;;36.08;33.08;;;10.20;99.90;;;;;;4984901;28;20038;-92
2024/01/13 10:06:18;;;;;;;36.05;32.65;;;10.30;99.90;;;;;;4981774;28;20029;-91
2024/01/13 10:08:46;;;;;;;35.70;32.80;;;10.30;99.90;;;;;;4976466;28;20026;-92
2024/01/13 10:11:13;;;;;;;35.22;32.38;;;10.20;99.90;;;;;;4981774;28;20472;-92
2024/01/13 10:13:42;;;;;;;36.25;33.33;;;10.10;99.90;;;;;;4976200;28;20030;-90
2024/01/13 10:16:12;;;;;;;35.03;32.53;;;10.10;99.90;;;;;;4983710;28;20515;-92
2024/01/13 10:18:42;;;;;;;35.63;33.00;;;9.90;99.90;;;;;;4985048;28;20052;-92
2024/01/13 10:21:11;;;;;;;35.30;32.50;;;9.90;99.90;;;;;;4984819;28;20029;-91
2024/01/13 10:23:38;;;;;;;35.67;32.70;;;10.10;99.90;;;;;;4981797;28;20031;-92
2024/01/13 10:26:05;;;;;;;35.08;32.20;;;10.20;99.90;;;;;;4966142;28;20034;-91
2024/01/13 10:28:31;;;;;;;34.40;31.60;;;10.20;99.90;;;;;;4965967;28;20033;-91
2024/01/13 10:31:01;;;;;;;35.10;32.22;;;10.20;99.90;;;;;;4940337;29;20425;-91
2024/01/13 10:33:31;;;;;;;34.75;32.25;;;10.40;99.90;;;;;;4944124;29;20040;-91
2024/01/13 10:35:59;;;;;;;34.75;32.03;;;10.60;99.90;;;;;;4921968;29;20059;-91
2024/01/13 10:38:26;;;;;;;35.83;33.03;;;10.60;99.90;;;;;;4889072;29;20032;-92
2024/01/13 10:40:53;;;;;;;35.90;33.10;;;10.50;99.90;;;;;;4889944;29;20044;-91
2024/01/13 10:43:24;;;;;;;35.00;32.60;;;10.40;99.90;;;;;;4888640;29;20036;-90
2024/01/13 10:46:00;;;;;;;36.17;33.58;;;10.20;99.90;;;;;;4887567;29;20115;-90
2024/01/13 10:48:38;;;;;;;34.90;32.17;;;10.00;99.90;;;;;;4887794;29;20040;-90
2024/01/13 10:51:13;;;;;;;35.97;33.03;;;9.80;99.90;;;;;;4887819;29;20498;-90
2024/01/13 10:53:42;;;;;;;34.40;31.70;;;10.00;99.90;;;;;;4887808;29;20052;-90
2024/01/13 10:56:11;;;;;;;37.55;34.28;;;10.20;99.90;;;;;;4918570;29;20059;-89
2024/01/13 10:58:39;;;;;;;34.95;32.30;;;10.60;99.90;;;;;;4919394;29;20024;-89
2024/01/13 11:01:08;;;;;;;35.58;32.80;;;10.70;99.90;;;;;;4934968;28;20035;-90
2024/01/13 11:03:40;;;;;;;34.75;31.75;;;10.50;99.90;;;;;;4945465;28;20031;-90
2024/01/13 11:06:07;;;;;;;35.00;32.22;;;10.10;99.90;;;;;;4948276;28;20048;-88
2024/01/13 11:08:37;;;;;;;34.70;32.10;;;9.80;99.90;;;;;;4968042;28;20464;-89
2024/01/13 11:11:15;;;;;;;35.95;33.13;;;9.60;99.90;;;;;;4985118;28;20038;-89
2024/01/13 11:13:53;;;;;;;34.88;31.92;;;9.70;99.90;;;;;;4965114;28;20106;-87
2024/01/13 11:16:25;;;;;;;34.83;32.10;;;9.90;99.90;;;;;;4983840;28;20054;-88
2024/01/13 11:18:54;;;;;;;35.10;32.40;;;9.90;99.90;;;;;;4980790;28;20071;-88
2024/01/13 11:21:34;;;;;;;34.97;31.85;;;10.10;99.90;;;;;;4957328;29;20039;-90
2024/01/13 11:24:08;;;;;;;35.63;32.40;;;10.10;99.90;;;;;;4940650;29;20032;-89
2024/01/13 11:26:42;;;;;;;35.35;32.28;;;10.10;99.90;;;;;;4940507;29;20039;-90
2024/01/13 11:29:20;;;;;;;34.13;31.65;;;10.40;99.90;;;;;;4940270;29;20031;-89
2024/01/13 11:31:54;;;;;;;35.28;32.33;;;10.50;99.90;;;;;;4940309;29;20151;-89
2024/01/13 11:34:22;;;;;;;36.90;33.70;;;10.70;99.90;;;;;;4952028;28;20037;-89
2024/01/13 11:36:57;;;;;;;36.33;33.33;;;10.50;99.90;;;;;;4959461;28;20085;-89
2024/01/13 11:39:24;;;;;;;35.33;32.47;;;10.50;99.90;;;;;;4978112;28;20039;-89
2024/01/13 11:41:55;;;;;;;35.63;32.72;;;10.60;99.90;;;;;;4962737;28;20023;-89
2024/01/13 11:44:36;;;;;;;35.90;32.53;;;10.80;99.90;;;;;;4959462;29;20031;-88
2024/01/13 11:47:13;;;;;;;35.38;32.58;;;10.80;99.90;;;;;;4942315;29;20046;-88
2024/01/13 11:49:44;;;;;;;34.30;31.42;;;10.70;99.90;;;;;;4942087;29;20027;-89
2024/01/13 11:52:15;;;;;;;35.25;32.25;;;10.60;99.90;;;;;;4942073;29;20043;-88
2024/01/13 11:54:46;;;;;;;35.00;32.25;;;10.70;99.90;;;;;;4949299;28;20019;-89
2024/01/13 11:57:16;;;;;;;34.35;31.88;;;10.80;99.90;;;;;;4941608;29;20042;-89
2024/01/13 11:59:43;;;;;;;35.17;32.38;;;10.60;99.90;;;;;;4976443;28;20041;-88
2024/01/13 12:02:12;;;;;;;35.65;32.45;;;10.40;99.90;;;;;;4976578;28;20055;-88
2024/01/13 12:04:42;;;;;;;35.08;32.30;;;10.00;99.90;;;;;;4979374;28;20063;-86
2024/01/13 12:07:11;;;;;;;34.85;32.17;;;9.80;99.90;;;;;;4989527;28;20030;-89
2024/01/13 12:09:40;;;;;;;34.78;32.05;;;9.70;99.90;;;;;;4974796;28;20054;-87
2024/01/13 12:12:07;;;;;;;34.60;31.70;;;9.70;99.90;;;;;;4984064;28;20027;-89
2024/01/13 12:14:36;;;;;;;35.90;32.97;;;9.80;99.90;;;;;;4999419;28;20027;-87
2024/01/13 12:17:04;;;;;;;35.80;32.90;;;10.00;99.90;;;;;;4998250;28;20479;-87
2024/01/13 12:19:39;;;;;;;34.47;31.70;;;10.40;99.90;;;;;;4999508;28;20491;-88
2024/01/13 12:22:09;;;;;;;35.38;32.30;;;10.50;99.90;;;;;;5000281;28;20041;-87
2024/01/13 12:24:37;;;;;;;36.50;33.35;;;10.50;99.90;;;;;;4980683;28;20019;-87
2024/01/13 12:27:04;;;;;;;35.78;32.75;;;10.50;99.90;;;;;;4997307;28;20053;-88
2024/01/13 12:29:34;;;;;;;35.40;32.45;;;10.40;99.90;;;;;;4962679;28;20022;-87
2024/01/13 12:32:03;;;;;;;36.50;33.58;;;10.20;99.90;;;;;;4959765;28;20047;-87
2024/01/13 12:34:33;;;;;;;35.28;32.55;;;10.20;99.90;;;;;;4959789;28;20023;-86
2024/01/13 12:37:02;;;;;;;36.67;33.40;;;10.40;99.90;;;;;;4960949;28;20531;-87
2024/01/13 12:39:29;;;;;;;35.95;32.78;;;10.60;99.90;;;;;;4959113;28;20034;-86